Terminal Aerodrome Forecast
Issued by NWS Quad Cities IA IL

Home | Current Version | Previous Version | Text Only | Print | Product List | Glossary On
Versions: 1 2 3 4 5 6 7 8 9 10 11 12 13 14 15 16 17
000
FTUS43 KDVN 191700
TAFDBQ
TAF
KDBQ 191720Z 1918/2018 13006KT P6SM BKN200
     FM192200 14008KT P6SM VCSH BKN050
     FM200000 27006KT P6SM OVC040
      TEMPO 2000/2004 4SM SHRA BKN035
     FM200400 34012KT 4SM -RA OVC025
     FM200900 33016G25KT 5SM -RA BR OVC025
     FM201500 31020G30KT P6SM OVC035=

USA.gov is the U.S. government's official web portal to all federal, state and local government web resources and services.